createdAt,value
2016-10-18T00:00:52.663Z,87.24
2016-10-18T00:05:52.615Z,87.24
2016-10-18T00:10:52.290Z,87.24
2016-10-18T00:15:52.514Z,87.1
2016-10-18T00:20:52.159Z,87.53
2016-10-18T00:25:52.413Z,87.24
2016-10-18T00:30:52.363Z,87.05
2016-10-18T00:35:52.312Z,87.19
2016-10-18T00:40:52.260Z,87.29
2016-10-18T00:45:51.911Z,87.19
2016-10-18T00:50:51.855Z,87.05
2016-10-18T00:55:52.110Z,86.72
2016-10-18T01:00:52.058Z,87.24
2016-10-18T01:05:52.004Z,87.19
2016-10-18T01:10:51.959Z,86.62
2016-10-18T01:15:51.901Z,86.52
2016-10-18T01:20:51.849Z,86.52
2016-10-18T01:25:51.806Z,86.43
2016-10-18T01:30:51.756Z,86.24
2016-10-18T01:35:51.698Z,86.43
2016-10-18T01:40:51.655Z,86.62
2016-10-18T01:45:51.290Z,86.24
2016-10-18T01:50:51.544Z,86.14
2016-10-18T01:55:51.194Z,86.52
2016-10-18T02:00:51.442Z,86.52
2016-10-18T02:05:51.394Z,86.43
2016-10-18T02:10:51.346Z,86.52
2016-10-18T02:15:50.986Z,86.33
2016-10-18T02:20:51.240Z,86.52
2016-10-18T02:25:51.180Z,86.62
2016-10-18T02:30:51.130Z,86.14
2016-10-18T02:35:50.779Z,86.62
2016-10-18T02:40:51.030Z,86.24
2016-10-18T02:45:50.978Z,86.24
2016-10-18T02:50:50.926Z,86.05
2016-10-18T02:55:50.874Z,86.24
2016-10-18T03:00:50.818Z,86.24
2016-10-18T03:05:50.768Z,86.05
2016-10-18T03:10:50.718Z,85.95
2016-10-18T03:15:50.666Z,85.95
2016-10-18T03:20:50.612Z,86.24
2016-10-18T03:25:50.564Z,86.24
2016-10-18T03:30:50.518Z,86.14
2016-10-18T03:35:50.152Z,86.14
2016-10-18T03:40:50.405Z,85.95
2016-10-18T03:45:50.351Z,86.05
2016-10-18T03:50:50.305Z,85.95
2016-10-18T03:55:50.248Z,85.95
2016-10-18T04:00:50.190Z,85.57
2016-10-18T04:05:50.138Z,85.85
2016-10-18T04:10:50.092Z,85.75
2016-10-18T04:15:50.035Z,85.85
2016-10-18T04:20:49.981Z,85.75
2016-10-18T04:25:49.925Z,86.05
2016-10-18T04:30:49.569Z,85.95
2016-10-18T04:35:49.822Z,86.05
2016-10-18T04:40:49.460Z,86.1
2016-10-18T04:45:49.709Z,85.95
2016-10-18T04:50:49.658Z,85.85
2016-10-18T04:55:49.605Z,85.85
2016-10-18T05:00:49.248Z,85.37
2016-10-18T05:05:49.497Z,85.28
2016-10-18T05:10:49.138Z,85.37
2016-10-18T05:15:49.401Z,85.18
2016-10-18T05:20:49.027Z,84.8
2016-10-18T05:25:49.280Z,85.08
2016-10-18T05:30:49.235Z,84.74
2016-10-18T05:35:49.172Z,84.84
2016-10-18T05:40:49.122Z,85.22
2016-10-18T05:45:49.067Z,85.03
2016-10-18T05:50:49.018Z,84.84
2016-10-18T05:55:48.660Z,85.51
2016-10-18T06:00:48.914Z,85.22
2016-10-18T06:05:48.553Z,84.74
2016-10-18T06:10:48.805Z,85.03
2016-10-18T06:15:48.450Z,85.41
2016-10-18T06:20:48.698Z,85.13
2016-10-18T06:25:48.650Z,85.22
2016-10-18T06:30:48.600Z,85.8
2016-10-18T06:35:48.540Z,85.22
2016-10-18T06:40:48.194Z,85.22
2016-10-18T06:45:48.441Z,85.22
2016-10-18T06:50:48.387Z,85.32
2016-10-18T06:55:48.368Z,85.13
2016-10-18T07:00:48.283Z,85.41
2016-10-18T07:05:47.929Z,85.03
2016-10-18T07:10:47.873Z,85.13
2016-10-18T07:15:47.816Z,85.13
2016-10-18T07:20:47.768Z,85.13
2016-10-18T07:25:48.021Z,85.13
2016-10-18T07:30:47.964Z,85.08
2016-10-18T07:35:47.909Z,85.41
2016-10-18T07:40:47.860Z,85.22
2016-10-18T07:45:47.817Z,85.03
2016-10-18T07:50:47.753Z,85.41
2016-10-18T07:55:47.695Z,85.32
2016-10-18T08:00:47.689Z,85.13
2016-10-18T08:05:47.291Z,85.32
2016-10-18T08:10:47.233Z,85.41
2016-10-18T08:15:47.489Z,85.71
2016-10-18T08:20:47.136Z,85.61
2016-10-18T08:25:47.387Z,85.71
2016-10-18T08:30:47.028Z,85.51
2016-10-18T08:35:47.278Z,85.89
2016-10-18T08:40:46.921Z,85.99
2016-10-18T08:45:47.172Z,85.99
2016-10-18T08:50:47.128Z,86.09
2016-10-18T08:55:47.075Z,86.47
2016-10-18T09:00:47.019Z,85.99
2016-10-18T09:05:46.967Z,86.09
2016-10-18T09:10:46.946Z,85.89
2016-10-18T09:15:46.565Z,86.66
2016-10-18T09:20:46.820Z,86.57
2016-10-18T09:25:46.792Z,86.42
2016-10-18T09:30:46.714Z,85.99
2016-10-18T09:35:46.663Z,86.47
2016-10-18T09:40:46.312Z,86.52
2016-10-18T09:45:46.565Z,86.47
2016-10-18T09:50:46.517Z,86.71
2016-10-18T09:55:46.466Z,86.61
2016-10-18T10:00:46.408Z,86.18
2016-10-18T10:05:46.366Z,86.13
2016-10-18T10:10:46.306Z,86.38
2016-10-18T10:15:46.299Z,86.57
2016-10-18T10:20:46.207Z,86.76
2016-10-18T10:25:45.855Z,86.09
2016-10-18T10:30:46.138Z,86.18
2016-10-18T10:35:46.050Z,86.09
2016-10-18T10:40:46.028Z,86.66
2016-10-18T10:45:45.646Z,86.09
2016-10-18T10:50:45.889Z,86.47
2016-10-18T10:55:45.838Z,86.47
2016-10-18T11:00:45.485Z,86.38
2016-10-18T11:05:45.739Z,86.47
2016-10-18T11:10:45.692Z,86.57
2016-10-18T11:15:45.637Z,86.66
2016-10-18T11:20:45.576Z,87.24
2016-10-18T11:25:45.542Z,87.34
2016-10-18T11:30:45.471Z,87.43
2016-10-18T11:35:45.427Z,87.62
2016-10-18T11:40:45.370Z,87.72
2016-10-18T11:45:45.015Z,87.92
2016-10-18T11:50:45.267Z,87.62
2016-10-18T11:55:45.224Z,87.43
2016-10-18T12:00:44.906Z,87.92
2016-10-18T12:05:45.114Z,87.24
2016-10-18T12:10:44.762Z,87.92
2016-10-18T12:15:45.016Z,87.62
2016-10-18T12:20:44.963Z,87.24
2016-10-18T12:25:44.907Z,87.34
2016-10-18T12:30:44.865Z,87.43
2016-10-18T12:35:44.523Z,87.34
2016-10-18T12:40:44.768Z,87.24
2016-10-18T12:45:44.404Z,87.15
2016-10-18T12:50:44.354Z,87.24
2016-10-18T12:55:44.302Z,87.34
2016-10-18T13:00:44.560Z,87.15
2016-10-18T13:05:44.507Z,87.24
2016-10-18T13:10:44.457Z,87.34
2016-10-18T13:15:44.409Z,87.92
2016-10-18T13:20:44.049Z,87.43
2016-10-18T13:25:44.307Z,87.92
2016-10-18T13:30:43.951Z,87.53
2016-10-18T13:35:44.206Z,87.72
2016-10-18T13:40:43.857Z,87.72
2016-10-18T13:45:44.101Z,87.82
2016-10-18T13:50:44.049Z,87.43
2016-10-18T13:55:43.999Z,87.62
2016-10-18T14:00:43.647Z,87.53
2016-10-18T14:05:43.598Z,87.82
2016-10-18T14:10:43.852Z,88.01
2016-10-18T14:15:43.794Z,88.1
2016-10-18T14:20:43.748Z,88.3
2016-10-18T14:25:43.707Z,88.49
2016-10-18T14:30:43.342Z,88.3
2016-10-18T14:35:43.303Z,88.68
2016-10-18T14:40:43.549Z,88.87
2016-10-18T14:45:43.513Z,88.97
2016-10-18T14:50:43.144Z,88.59
2016-10-18T14:55:43.395Z,88.59
2016-10-18T15:00:43.345Z,88.97
2016-10-18T15:05:43.295Z,88.97
2016-10-18T15:10:43.256Z,88.78
2016-10-18T15:15:43.190Z,88.87
2016-10-18T15:20:43.143Z,88.39
2016-10-18T15:25:43.083Z,88.68
2016-10-18T15:30:43.043Z,88.78
2016-10-18T15:35:43.009Z,88.2
2016-10-18T15:40:42.937Z,88.39
2016-10-18T15:45:42.584Z,88.49
2016-10-18T15:50:42.558Z,88.39
2016-10-18T15:55:42.481Z,89.26
2016-10-18T16:00:42.740Z,88.82
2016-10-18T16:05:42.388Z,88.73
2016-10-18T16:10:42.639Z,88.87
2016-10-18T16:15:42.585Z,89.06
2016-10-18T16:20:42.547Z,89.83
2016-10-18T16:25:42.502Z,89.64
2016-10-18T16:30:42.135Z,89.73
2016-10-18T16:35:42.391Z,89.73
2016-10-18T16:40:42.034Z,89.15
2016-10-18T16:45:42.289Z,89.25
2016-10-18T16:50:41.935Z,89.54
2016-10-18T16:55:42.193Z,88.73
2016-10-18T17:00:42.146Z,88.63
2016-10-18T17:05:41.792Z,88.82
2016-10-18T17:10:41.736Z,88.73
2016-10-18T17:15:41.692Z,89.11
2016-10-18T17:20:41.985Z,88.82
2016-10-18T17:25:41.897Z,88.34
2016-10-18T17:30:41.547Z,88.44
2016-10-18T17:35:41.802Z,87.67
2016-10-18T17:40:41.450Z,87.96
2016-10-18T17:45:41.742Z,87.76
2016-10-18T17:50:41.660Z,87.67
2016-10-18T17:55:41.631Z,87.57
2016-10-18T18:00:41.263Z,87.29
2016-10-18T18:05:41.529Z,86.99
2016-10-18T18:10:41.475Z,86.75
2016-10-18T18:15:41.439Z,86.56
2016-10-18T18:20:41.400Z,86.27
2016-10-18T18:25:41.341Z,85.65
2016-10-18T18:30:41.294Z,86.65
2016-10-18T18:35:41.261Z,86.56
2016-10-18T18:40:40.889Z,87.13
2016-10-18T18:45:41.153Z,86.65
2016-10-18T18:50:41.099Z,87.42
2016-10-18T18:55:41.051Z,86.08
2016-10-18T19:00:41.004Z,85.07
2016-10-18T19:05:40.645Z,84.59
2016-10-18T19:10:40.912Z,85.4
2016-10-18T19:15:40.857Z,85.21
2016-10-18T19:20:40.834Z,84.25
2016-10-18T19:25:40.768Z,84.44
2016-10-18T19:30:40.714Z,85.21
2016-10-18T19:35:40.369Z,84.83
2016-10-18T19:40:40.623Z,85.11
2016-10-18T19:45:40.578Z,85.6
2016-10-18T19:50:40.226Z,85.88
2016-10-18T19:55:40.496Z,84.83
2016-10-18T20:00:40.133Z,84.44
2016-10-18T20:05:40.393Z,84.25
2016-10-18T20:10:40.367Z,85.31
2016-10-18T20:15:39.999Z,85.31
2016-10-18T20:20:40.259Z,85.4
2016-10-18T20:25:39.895Z,85.06
2016-10-18T20:30:40.157Z,85.16
2016-10-18T20:35:40.115Z,85.25
2016-10-18T20:40:40.073Z,84.87
2016-10-18T20:45:40.024Z,84.58
2016-10-18T20:50:39.979Z,84.97
2016-10-18T20:55:39.629Z,85.16
2016-10-18T21:00:39.893Z,86.02
2016-10-18T21:05:39.541Z,85.16
2016-10-18T21:10:39.798Z,85.25
2016-10-18T21:15:39.752Z,85.25
2016-10-18T21:20:39.401Z,85.44
2016-10-18T21:25:39.664Z,85.35
2016-10-18T21:30:39.616Z,84.67
2016-10-18T21:35:39.269Z,84.77
2016-10-18T21:40:39.530Z,85.16
2016-10-18T21:45:39.172Z,84.48
2016-10-18T21:50:39.126Z,84.44
2016-10-18T21:55:39.384Z,84.34
2016-10-18T22:00:39.338Z,84.44
2016-10-18T22:05:39.296Z,84.34
2016-10-18T22:10:38.933Z,84.63
2016-10-18T22:15:39.183Z,84.63
2016-10-18T22:20:39.142Z,84.21
2016-10-18T22:25:39.091Z,84.4
2016-10-18T22:30:38.735Z,84.5
2016-10-18T22:35:38.683Z,84.98
2016-10-18T22:40:38.941Z,85.07
2016-10-18T22:45:38.585Z,85.27
2016-10-18T22:50:38.539Z,85.32
2016-10-18T22:55:38.795Z,85.41
2016-10-18T23:00:38.439Z,85.51
2016-10-18T23:05:38.692Z,84.94
2016-10-18T23:10:38.645Z,85.32
2016-10-18T23:15:38.301Z,85.13
2016-10-18T23:20:38.238Z,85.13
2016-10-18T23:25:38.495Z,85.22
2016-10-18T23:30:38.482Z,85.8
2016-10-18T23:35:38.390Z,85.13
2016-10-18T23:40:38.337Z,85.32
2016-10-18T23:45:38.292Z,85.13
2016-10-18T23:50:38.238Z,85.51
2016-10-18T23:55:37.879Z,85.22
